Alpine Light — V7UJ6 — position and weather

sailwx.info

Track history (hours):
 
Tides and Currents Weather Stations Pressure Air Temp Water Temp Dewpoint Dewpoint Depression Visibility Wind Speed Wind Dir Waves Ship Positions

Alpine Light

Last reported at 2015-Aug-12 01:29 UTC. Time now 2015-Aug-31 08:55 UTC.
Position N 02°57' E 100°52'.
Warning: this ship's position is 19 days out of date.

Length 183 m; draft 8.6 m.

Type: Tanker. MMSI: 538003962.

Date/timePositionNaut miles runAvg speedWind from/ knotsBaromVisibWave heightAir tempDewpointWater temp
2015-Aug-12 01:29N 02°57' E 100°52'1213.4
2015-Aug-12 00:33N 02°49' E 101°02'2512.6
2015-Aug-11 22:33N 02°38' E 101°24'1211.9
2015-Aug-11 21:33N 02°31' E 101°34'1212.1
2015-Aug-11 20:32N 02°24' E 101°44'  
2015-Aug-04 17:33N 02°25' E 101°37'2412.0
2015-Aug-04 15:33N 02°38' E 101°17'3712.4
2015-Aug-04 12:33N 02°58' E 100°45'2613.2
2015-Aug-04 10:33N 03°16' E 100°27'  
Track history (hours):
 
Tides and Currents Weather Stations Pressure Air Temp Water Temp Dewpoint Dewpoint Depression Visibility Wind Speed Wind Dir Waves Ship Positions

Alpine Light

Last reported at 2015-Aug-12 01:29 UTC. Time now 2015-Aug-31 08:55 UTC.
Position N 02°57' E 100°52'.
Warning: this ship's position is 19 days out of date.

Length 183 m; draft 8.6 m.

Type: Tanker. MMSI: 538003962.

Date/timePositionNaut miles runAvg speedWind from/ knotsBaromVisibWave heightAir tempDewpointWater temp
2015-Aug-12 01:29N 02°57' E 100°52'1213.4
2015-Aug-12 00:33N 02°49' E 101°02'2512.6
2015-Aug-11 22:33N 02°38' E 101°24'1211.9
2015-Aug-11 21:33N 02°31' E 101°34'1212.1
2015-Aug-11 20:32N 02°24' E 101°44'  
2015-Aug-04 17:33N 02°25' E 101°37'2412.0
2015-Aug-04 15:33N 02°38' E 101°17'3712.4
2015-Aug-04 12:33N 02°58' E 100°45'2613.2
2015-Aug-04 10:33N 03°16' E 100°27'  

Dump ship's entire track history